createdAt,value
2022-08-19T00:00:06.346Z,974.47
2022-08-19T00:05:37.776Z,974.43
2022-08-19T00:11:26.394Z,974.23
2022-08-19T00:16:47.552Z,974.05
2022-08-19T00:22:20.104Z,974.06
2022-08-19T00:27:51.238Z,974.66
2022-08-19T00:33:22.747Z,974.7
2022-08-19T00:38:54.601Z,974.16
2022-08-19T00:44:27.733Z,973.92
2022-08-19T00:49:58.238Z,974.0
2022-08-19T00:55:29.694Z,974.08
2022-08-19T01:01:01.409Z,974.56
2022-08-19T01:06:33.261Z,974.68
2022-08-19T01:12:04.866Z,974.78
2022-08-19T01:17:40.947Z,974.42
2022-08-19T01:23:12.648Z,974.66
2022-08-19T01:28:44.441Z,975.04
2022-08-19T01:34:16.129Z,975.01
2022-08-19T01:39:48.056Z,974.55
2022-08-19T01:45:19.577Z,974.07
2022-08-19T01:50:51.243Z,974.14
2022-08-19T01:56:22.985Z,974.65
2022-08-19T02:01:54.825Z,974.5
2022-08-19T02:07:26.495Z,973.98
2022-08-19T02:12:58.221Z,974.94
2022-08-19T02:18:34.230Z,974.64
2022-08-19T02:24:05.959Z,974.27
2022-08-19T02:29:37.800Z,974.07
2022-08-19T02:35:13.390Z,974.23
2022-08-19T02:40:41.165Z,974.5
2022-08-19T02:46:12.881Z,974.84
2022-08-19T02:51:44.674Z,974.53
2022-08-19T02:57:16.317Z,974.3
2022-08-19T03:02:48.316Z,974.84
2022-08-19T03:08:22.149Z,974.54
2022-08-19T03:13:51.506Z,974.16
2022-08-19T03:19:27.597Z,974.92
2022-08-19T03:24:59.402Z,974.97
2022-08-19T03:30:33.826Z,974.85
2022-08-19T03:36:02.693Z,974.64
2022-08-19T03:41:48.821Z,974.61
2022-08-19T03:47:06.169Z,974.15
2022-08-19T03:52:37.897Z,974.66
2022-08-19T03:58:09.585Z,974.67
2022-08-19T04:03:41.325Z,975.06
2022-08-19T04:09:13.037Z,975.02
2022-08-19T04:14:44.761Z,975.16
2022-08-19T04:20:20.930Z,975.1
2022-08-19T04:25:52.644Z,975.22
2022-08-19T04:31:24.446Z,975.29
2022-08-19T04:36:56.094Z,975.34
2022-08-19T04:42:31.819Z,975.43
2022-08-19T04:48:28.351Z,975.73
2022-08-19T04:53:38.770Z,975.97
2022-08-19T04:59:02.933Z,976.04
2022-08-19T05:04:34.676Z,976.07
2022-08-19T05:10:06.569Z,976.01
2022-08-19T05:15:38.221Z,976.07
2022-08-19T05:21:16.253Z,975.95
2022-08-19T05:26:47.956Z,976.14
2022-08-19T05:32:19.824Z,976.41
2022-08-19T05:37:59.468Z,977.13
2022-08-19T05:43:23.133Z,977.23
2022-08-19T05:48:55.407Z,977.45
2022-08-19T05:54:26.522Z,977.12
2022-08-19T05:59:59.710Z,977.3
2022-08-19T06:05:30.104Z,977.5
2022-08-19T06:11:01.870Z,977.22
2022-08-19T06:16:33.478Z,977.6
2022-08-19T06:22:09.542Z,977.44
2022-08-19T06:28:15.645Z,977.21
2022-08-19T06:33:13.366Z,977.77
2022-08-19T06:38:47.054Z,977.47
2022-08-19T06:44:20.474Z,977.37
2022-08-19T06:49:48.182Z,977.57
2022-08-19T06:55:20.104Z,977.48
2022-08-19T07:00:51.834Z,977.29
2022-08-19T07:06:45.129Z,977.51
2022-08-19T07:11:55.062Z,977.71
2022-08-19T07:17:26.776Z,977.85
2022-08-19T07:23:08.182Z,977.99
2022-08-19T07:28:37.014Z,978.07
2022-08-19T07:34:08.553Z,978.02
2022-08-19T07:39:40.270Z,978.35
2022-08-19T07:45:11.827Z,978.27
2022-08-19T07:50:43.474Z,978.27
2022-08-19T07:56:15.282Z,978.13
2022-08-19T08:01:47.268Z,978.12
2022-08-19T08:07:18.725Z,978.24
2022-08-19T08:13:11.613Z,978.28
2022-08-19T08:18:30.320Z,978.38
2022-08-19T08:29:35.696Z,978.82
2022-08-19T08:35:01.638Z,978.62
2022-08-19T08:40:33.430Z,978.53
2022-08-19T08:46:07.846Z,978.38
2022-08-19T08:51:37.534Z,978.69
2022-08-19T08:57:08.619Z,978.49
2022-08-19T09:02:44.225Z,978.64
2022-08-19T09:08:14.417Z,978.6
2022-08-19T09:13:43.749Z,979.02
2022-08-19T09:19:23.058Z,979.02
2022-08-19T09:24:51.582Z,979.26
2022-08-19T09:30:23.299Z,979.29
2022-08-19T09:35:55.081Z,979.56
2022-08-19T09:41:30.189Z,979.09
2022-08-19T09:46:58.511Z,979.46
2022-08-19T09:52:33.421Z,979.36
2022-08-19T09:58:01.973Z,979.15
2022-08-19T10:03:33.601Z,979.26
2022-08-19T10:09:09.665Z,979.17
2022-08-19T10:14:39.585Z,979.14
2022-08-19T10:20:08.881Z,979.16
2022-08-19T10:25:44.977Z,979.25
2022-08-19T10:31:20.113Z,979.16
2022-08-19T10:37:02.178Z,979.14
2022-08-19T10:42:20.169Z,978.91
2022-08-19T10:47:51.880Z,979.39
2022-08-19T10:53:23.813Z,978.65
2022-08-19T10:58:55.236Z,978.71
2022-08-19T11:04:30.159Z,978.64
2022-08-19T11:09:58.685Z,978.74
2022-08-19T11:15:30.469Z,978.87
2022-08-19T11:21:02.357Z,978.69
2022-08-19T11:26:42.266Z,978.63
2022-08-19T11:32:14.105Z,978.65
2022-08-19T11:37:45.697Z,978.66
2022-08-19T11:43:17.480Z,978.65
2022-08-19T11:48:49.201Z,978.55
2022-08-19T11:54:20.843Z,978.38
2022-08-19T11:59:52.613Z,978.21
2022-08-19T12:05:24.325Z,978.48
2022-08-19T12:10:56.153Z,978.28
2022-08-19T12:16:27.747Z,978.16
2022-08-19T12:21:59.577Z,978.28
2022-08-19T12:27:46.942Z,978.16
2022-08-19T12:33:07.429Z,978.06
2022-08-19T12:38:39.090Z,978.38
2022-08-19T12:44:14.994Z,977.74
2022-08-19T12:49:56.364Z,978.03
2022-08-19T12:55:14.251Z,977.79
2022-08-19T13:00:46.192Z,978.3
2022-08-19T13:06:20.894Z,978.4
2022-08-19T13:11:49.538Z,978.07
2022-08-19T13:17:21.241Z,977.84
2022-08-19T13:22:52.853Z,977.76
2022-08-19T13:28:29.888Z,977.79
2022-08-19T13:34:00.692Z,977.69
2022-08-19T13:39:32.608Z,977.59
2022-08-19T13:45:04.265Z,976.94
2022-08-19T13:50:35.904Z,976.54
2022-08-19T13:56:07.628Z,976.4
2022-08-19T14:01:39.340Z,976.42
2022-08-19T14:07:11.110Z,976.47
2022-08-19T14:12:42.872Z,976.91
2022-08-19T14:18:14.558Z,976.7
2022-08-19T14:23:46.314Z,977.23
2022-08-19T14:29:22.354Z,977.19
2022-08-19T14:34:54.083Z,977.07
2022-08-19T14:40:25.651Z,977.43
2022-08-19T14:45:59.255Z,977.41
2022-08-19T14:51:29.277Z,977.29
2022-08-19T14:57:01.071Z,977.08
2022-08-19T15:02:36.092Z,977.61
2022-08-19T15:08:04.477Z,977.49
2022-08-19T15:13:36.258Z,977.32
2022-08-19T15:19:07.931Z,977.81
2022-08-19T15:24:49.178Z,977.89
2022-08-19T15:30:18.510Z,977.19
2022-08-19T15:35:50.458Z,977.44
2022-08-19T15:41:22.258Z,977.97
2022-08-19T15:46:53.862Z,977.91
2022-08-19T15:52:25.662Z,978.32
2022-08-19T15:57:57.458Z,978.1
2022-08-19T16:03:30.328Z,977.6
2022-08-19T16:09:00.837Z,977.25
2022-08-19T16:14:32.588Z,977.42
2022-08-19T16:20:04.382Z,976.83
2022-08-19T16:25:36.103Z,976.47
2022-08-19T16:31:12.130Z,976.42
2022-08-19T16:36:44.017Z,976.87
2022-08-19T16:42:15.573Z,976.64
2022-08-19T16:47:47.297Z,976.99
2022-08-19T16:53:20.290Z,977.28
2022-08-19T16:58:50.905Z,977.32
2022-08-19T17:04:22.553Z,977.07
2022-08-19T17:09:55.921Z,977.44
2022-08-19T17:15:26.026Z,977.66
2022-08-19T17:20:57.730Z,977.7
2022-08-19T17:26:29.471Z,977.77
2022-08-19T17:32:07.592Z,978.32
2022-08-19T17:37:39.285Z,978.06
2022-08-19T17:43:10.973Z,978.05
2022-08-19T17:48:42.817Z,978.0
2022-08-19T17:54:14.510Z,977.94
2022-08-19T17:59:46.922Z,977.85
2022-08-19T18:05:18.014Z,977.86
2022-08-19T18:10:49.730Z,978.05
2022-08-19T18:16:23.387Z,978.04
2022-08-19T18:21:55.090Z,978.18
2022-08-19T18:27:26.812Z,978.37
2022-08-19T18:33:09.506Z,978.43
2022-08-19T18:38:34.565Z,978.44
2022-08-19T18:44:06.231Z,978.48
2022-08-19T18:49:38.053Z,978.61
2022-08-19T18:55:09.722Z,978.48
2022-08-19T19:00:41.413Z,978.97
2022-08-19T19:06:13.140Z,978.84
2022-08-19T19:11:44.890Z,979.11
2022-08-19T19:17:16.618Z,979.42
2022-08-19T19:22:48.482Z,979.39
2022-08-19T19:28:20.122Z,979.45
2022-08-19T19:33:56.263Z,979.34
2022-08-19T19:39:47.800Z,979.48
2022-08-19T19:44:59.642Z,979.5
2022-08-19T19:50:31.389Z,979.49
2022-08-19T19:56:03.122Z,979.44
2022-08-19T20:01:35.158Z,979.47
2022-08-19T20:07:08.155Z,979.33
2022-08-19T20:12:38.326Z,979.09
2022-08-19T20:18:10.627Z,979.18
2022-08-19T20:23:41.762Z,979.14
2022-08-19T20:29:44.722Z,978.98
2022-08-19T20:34:51.494Z,978.78
2022-08-19T20:40:23.371Z,978.52
2022-08-19T20:45:54.982Z,978.49
2022-08-19T20:51:26.701Z,978.5
2022-08-19T20:56:58.424Z,978.38
2022-08-19T21:02:30.237Z,978.36
2022-08-19T21:08:02.122Z,978.18
2022-08-19T21:13:33.595Z,978.23
2022-08-19T21:19:05.359Z,978.12
2022-08-19T21:24:37.042Z,978.09
2022-08-19T21:30:08.756Z,978.03
2022-08-19T21:35:44.878Z,978.05
2022-08-19T21:41:16.818Z,977.73
2022-08-19T21:46:51.154Z,977.55
2022-08-19T21:52:20.060Z,977.7
2022-08-19T21:57:51.843Z,977.43
2022-08-19T22:03:23.595Z,977.72
2022-08-19T22:08:55.268Z,977.6
2022-08-19T22:14:26.946Z,977.36
2022-08-19T22:19:58.909Z,977.2
2022-08-19T22:25:32.762Z,977.0
2022-08-19T22:31:04.062Z,977.35
2022-08-19T22:36:38.601Z,977.17
2022-08-19T22:42:10.233Z,977.39
2022-08-19T22:47:41.985Z,977.33
2022-08-19T22:53:13.637Z,977.17
2022-08-19T22:58:45.410Z,977.27
2022-08-19T23:04:17.245Z,977.28
2022-08-19T23:09:49.082Z,977.17
2022-08-19T23:15:20.870Z,976.99
2022-08-19T23:20:52.470Z,976.74
2022-08-19T23:26:24.191Z,976.82
2022-08-19T23:31:55.903Z,977.02
2022-08-19T23:37:32.108Z,976.95
2022-08-19T23:43:10.126Z,976.95
2022-08-19T23:48:35.434Z,976.73
2022-08-19T23:54:07.177Z,976.86
2022-08-19T23:59:38.877Z,976.69
